Andover, CT (06232)

1:57 AM EDT on April 21, 2015 (GMT -0400)
Baker Brook/Daria Dr. | | Change Station
CLOSE
Current Station
Personal Weather Station
Location: Bolton, CT
Elevation: 568 ft
Nearby Weather Stations

Elev 568 ft 41.73 °N, 72.42 °W | Updated 2 minutes ago

Overcast
Overcast
52.2 °F
Feels Like 52.2 °F
N
2.2
Wind Variable Wind from SE

Today
High -- | Low -- °F
--% Chance of Precip.
Yesterday
High -- | Low -- °F
Precip. -- in
6:00 AM 7:36 PM
Waxing Crescent, 8% visible
Pressure 29.62 in
Visibility 7.0 miles
Clouds Overcast 400 ft
Dew Point 52 °F
Humidity 99%
Rainfall 0.00 in
Snow Depth Not available.
UV 0 out of 12
Pollen 4.50 out of 12
Air Quality Not available.
Flu Activity Widespread
METAR KIJD 210552Z AUTO 00000KT 7SM -RA OVC004 13/12 A2962 RMK AO2 RAE21B40 SLP028 P0001 60027 T01280122 10139 20128 58025

More Conditions Fewer Conditions

Pressure 29.62 in
Visibility 7.0 miles
Clouds Overcast 400 ft
Dew Point 52 °F
Humidity 99%
Rainfall 0.00 in
Snow Depth Not available.
UV 0 out of 12
Pollen 4.50 out of 12
Air Quality Not available.
Flu Activity Widespread
METAR KIJD 210552Z AUTO 00000KT 7SM -RA OVC004 13/12 A2962 RMK AO2 RAE21B40 SLP028 P0001 60027 T01280122 10139 20128 58025

More Conditions Fewer Conditions

10-Day Weather Forecast

Almanac

Astronomy

Apr. 21, 2015 Rise Set
Actual Time
Civil Twilight
Nautical Twilight
Astronomical Twilight
Moon
Length of Visible Light
Length of Day
Tomorrow will be .
, % of the Moon is Illuminated

Today's Extremes

State Highs State Lows

Community

WunderPhotos

Upload Photos

1,815,316 photos uploaded!

WunderBlogs® & News

Nearby

Air Quality

  Air Quality AQ Index Pollutant
Not available.

Snow Depth

Station Depth Elevation

Earthquake Activity

City Distance Mag. Time & Date
Minimum magnitude displayed is 2.5.

Coastal Water Temperatures

Place Temperature

Stations

Nearby Weather Stations

Station Location Temp. Windchill Dew Point Humidity Wind Precip. Elev Updated Type